sensor_id;sensor_type;location;lat;lon;timestamp;P1;durP1;ratioP1;P2;durP2;ratioP2
70199;SDS011;57587;55.688;37.600;2022-08-21T00:01:39;68.00;;;42.47;;
70199;SDS011;57587;55.688;37.600;2022-08-21T00:04:08;67.95;;;41.95;;
70199;SDS011;57587;55.688;37.600;2022-08-21T00:06:36;76.00;;;44.55;;
70199;SDS011;57587;55.688;37.600;2022-08-21T00:09:06;71.13;;;41.60;;
70199;SDS011;57587;55.688;37.600;2022-08-21T00:11:35;72.77;;;43.53;;
70199;SDS011;57587;55.688;37.600;2022-08-21T00:14:05;73.80;;;44.20;;
70199;SDS011;57587;55.688;37.600;2022-08-21T00:16:36;74.38;;;45.30;;
70199;SDS011;57587;55.688;37.600;2022-08-21T00:19:22;73.82;;;44.78;;
70199;SDS011;57587;55.688;37.600;2022-08-21T00:21:52;76.57;;;43.83;;
70199;SDS011;57587;55.688;37.600;2022-08-21T00:24:25;69.40;;;42.83;;
70199;SDS011;57587;55.688;37.600;2022-08-21T00:26:53;70.07;;;44.13;;
70199;SDS011;57587;55.688;37.600;2022-08-21T00:29:21;66.00;;;42.97;;
70199;SDS011;57587;55.688;37.600;2022-08-21T00:31:48;75.22;;;43.80;;
70199;SDS011;57587;55.688;37.600;2022-08-21T00:34:15;68.47;;;41.63;;
70199;SDS011;57587;55.688;37.600;2022-08-21T00:36:42;72.70;;;44.10;;
70199;SDS011;57587;55.688;37.600;2022-08-21T00:39:09;70.35;;;42.75;;
70199;SDS011;57587;55.688;37.600;2022-08-21T00:41:37;70.43;;;43.47;;
70199;SDS011;57587;55.688;37.600;2022-08-21T00:44:07;76.88;;;43.30;;
70199;SDS011;57587;55.688;37.600;2022-08-21T00:46:38;69.82;;;44.22;;
70199;SDS011;57587;55.688;37.600;2022-08-21T00:49:07;70.70;;;45.20;;
70199;SDS011;57587;55.688;37.600;2022-08-21T00:51:55;72.60;;;42.90;;
70199;SDS011;57587;55.688;37.600;2022-08-21T00:54:27;70.97;;;41.70;;
70199;SDS011;57587;55.688;37.600;2022-08-21T00:56:59;74.05;;;43.35;;
70199;SDS011;57587;55.688;37.600;2022-08-21T00:59:40;68.45;;;43.50;;
70199;SDS011;57587;55.688;37.600;2022-08-21T01:02:11;67.47;;;42.23;;
70199;SDS011;57587;55.688;37.600;2022-08-21T01:04:39;65.05;;;41.85;;
70199;SDS011;57587;55.688;37.600;2022-08-21T01:07:07;77.43;;;43.00;;
70199;SDS011;57587;55.688;37.600;2022-08-21T01:09:35;74.95;;;43.10;;
70199;SDS011;57587;55.688;37.600;2022-08-21T01:12:03;73.03;;;43.28;;
70199;SDS011;57587;55.688;37.600;2022-08-21T01:14:31;69.53;;;42.23;;
70199;SDS011;57587;55.688;37.600;2022-08-21T01:16:59;72.05;;;41.13;;
70199;SDS011;57587;55.688;37.600;2022-08-21T01:19:29;71.18;;;42.30;;
70199;SDS011;57587;55.688;37.600;2022-08-21T01:21:57;71.40;;;42.63;;
70199;SDS011;57587;55.688;37.600;2022-08-21T01:24:26;67.53;;;40.83;;
70199;SDS011;57587;55.688;37.600;2022-08-21T01:26:53;69.50;;;40.47;;
70199;SDS011;57587;55.688;37.600;2022-08-21T01:31:58;70.85;;;43.00;;
70199;SDS011;57587;55.688;37.600;2022-08-21T01:34:25;71.93;;;42.97;;
70199;SDS011;57587;55.688;37.600;2022-08-21T01:36:52;69.43;;;41.47;;
70199;SDS011;57587;55.688;37.600;2022-08-21T01:39:19;67.93;;;40.83;;
70199;SDS011;57587;55.688;37.600;2022-08-21T01:41:46;70.80;;;41.83;;
70199;SDS011;57587;55.688;37.600;2022-08-21T01:44:13;76.57;;;43.80;;
70199;SDS011;57587;55.688;37.600;2022-08-21T01:46:40;61.90;;;39.55;;
70199;SDS011;57587;55.688;37.600;2022-08-21T01:49:07;69.18;;;40.83;;
70199;SDS011;57587;55.688;37.600;2022-08-21T01:51:35;74.93;;;40.33;;
70199;SDS011;57587;55.688;37.600;2022-08-21T01:54:02;66.70;;;40.60;;
70199;SDS011;57587;55.688;37.600;2022-08-21T01:56:29;70.40;;;39.25;;
70199;SDS011;57587;55.688;37.600;2022-08-21T01:59:04;63.25;;;36.55;;
70199;SDS011;57587;55.688;37.600;2022-08-21T02:01:31;64.10;;;37.97;;
70199;SDS011;57587;55.688;37.600;2022-08-21T02:03:59;64.37;;;38.67;;
70199;SDS011;57587;55.688;37.600;2022-08-21T02:06:26;68.95;;;37.92;;
70199;SDS011;57587;55.688;37.600;2022-08-21T02:08:53;65.97;;;37.92;;
70199;SDS011;57587;55.688;37.600;2022-08-21T02:11:20;63.05;;;37.40;;
70199;SDS011;57587;55.688;37.600;2022-08-21T02:13:48;57.42;;;36.13;;
70199;SDS011;57587;55.688;37.600;2022-08-21T02:16:19;61.63;;;36.73;;
70199;SDS011;57587;55.688;37.600;2022-08-21T02:18:46;61.20;;;35.78;;
70199;SDS011;57587;55.688;37.600;2022-08-21T02:21:13;61.92;;;36.42;;
70199;SDS011;57587;55.688;37.600;2022-08-21T02:23:41;57.75;;;36.33;;
70199;SDS011;57587;55.688;37.600;2022-08-21T02:26:10;58.00;;;37.08;;
70199;SDS011;57587;55.688;37.600;2022-08-21T02:28:38;65.53;;;35.77;;
70199;SDS011;57587;55.688;37.600;2022-08-21T02:31:05;66.78;;;36.80;;
70199;SDS011;57587;55.688;37.600;2022-08-21T02:33:34;59.90;;;37.05;;
70199;SDS011;57587;55.688;37.600;2022-08-21T02:36:01;61.08;;;35.17;;
70199;SDS011;57587;55.688;37.600;2022-08-21T02:38:35;59.25;;;35.05;;
70199;SDS011;57587;55.688;37.600;2022-08-21T02:41:07;60.83;;;35.40;;
70199;SDS011;57587;55.688;37.600;2022-08-21T02:43:37;64.43;;;35.55;;
70199;SDS011;57587;55.688;37.600;2022-08-21T02:46:05;57.88;;;34.30;;
70199;SDS011;57587;55.688;37.600;2022-08-21T02:48:34;54.72;;;34.47;;
70199;SDS011;57587;55.688;37.600;2022-08-21T02:51:03;57.92;;;35.22;;
70199;SDS011;57587;55.688;37.600;2022-08-21T02:53:35;55.23;;;34.87;;
70199;SDS011;57587;55.688;37.600;2022-08-21T02:56:04;56.15;;;35.25;;
70199;SDS011;57587;55.688;37.600;2022-08-21T02:58:34;53.20;;;34.45;;
70199;SDS011;57587;55.688;37.600;2022-08-21T03:01:06;60.88;;;34.83;;
70199;SDS011;57587;55.688;37.600;2022-08-21T03:03:40;57.55;;;34.85;;
70199;SDS011;57587;55.688;37.600;2022-08-21T03:06:10;61.33;;;35.43;;
70199;SDS011;57587;55.688;37.600;2022-08-21T03:08:39;63.83;;;34.08;;
70199;SDS011;57587;55.688;37.600;2022-08-21T03:11:06;55.65;;;33.72;;
70199;SDS011;57587;55.688;37.600;2022-08-21T03:13:36;59.20;;;33.42;;
70199;SDS011;57587;55.688;37.600;2022-08-21T03:16:03;55.92;;;33.70;;
70199;SDS011;57587;55.688;37.600;2022-08-21T03:18:35;56.53;;;34.40;;
70199;SDS011;57587;55.688;37.600;2022-08-21T03:21:03;58.10;;;33.47;;
70199;SDS011;57587;55.688;37.600;2022-08-21T03:23:31;59.05;;;35.72;;
70199;SDS011;57587;55.688;37.600;2022-08-21T03:25:59;56.80;;;33.20;;
70199;SDS011;57587;55.688;37.600;2022-08-21T03:28:27;61.78;;;36.05;;
70199;SDS011;57587;55.688;37.600;2022-08-21T03:30:54;58.13;;;34.27;;
70199;SDS011;57587;55.688;37.600;2022-08-21T03:33:22;58.40;;;34.58;;
70199;SDS011;57587;55.688;37.600;2022-08-21T03:36:05;50.55;;;34.10;;
70199;SDS011;57587;55.688;37.600;2022-08-21T03:38:34;56.22;;;34.28;;
70199;SDS011;57587;55.688;37.600;2022-08-21T03:41:03;60.47;;;35.30;;
70199;SDS011;57587;55.688;37.600;2022-08-21T03:43:34;60.60;;;34.80;;
70199;SDS011;57587;55.688;37.600;2022-08-21T03:46:04;58.08;;;35.95;;
70199;SDS011;57587;55.688;37.600;2022-08-21T03:48:33;57.78;;;34.08;;
70199;SDS011;57587;55.688;37.600;2022-08-21T03:51:02;55.22;;;34.90;;
70199;SDS011;57587;55.688;37.600;2022-08-21T03:53:29;56.70;;;35.20;;
70199;SDS011;57587;55.688;37.600;2022-08-21T03:55:56;59.07;;;35.83;;
70199;SDS011;57587;55.688;37.600;2022-08-21T03:58:24;55.88;;;34.95;;
70199;SDS011;57587;55.688;37.600;2022-08-21T04:00:55;62.97;;;36.42;;
70199;SDS011;57587;55.688;37.600;2022-08-21T04:03:24;58.90;;;35.67;;
70199;SDS011;57587;55.688;37.600;2022-08-21T04:05:52;54.15;;;35.30;;
70199;SDS011;57587;55.688;37.600;2022-08-21T04:08:19;55.97;;;35.27;;
70199;SDS011;57587;55.688;37.600;2022-08-21T04:10:48;61.65;;;36.95;;
70199;SDS011;57587;55.688;37.600;2022-08-21T04:13:18;55.20;;;36.53;;
70199;SDS011;57587;55.688;37.600;2022-08-21T04:15:48;52.83;;;35.97;;
70199;SDS011;57587;55.688;37.600;2022-08-21T04:18:16;58.53;;;38.05;;
70199;SDS011;57587;55.688;37.600;2022-08-21T04:20:43;63.30;;;39.33;;
70199;SDS011;57587;55.688;37.600;2022-08-21T04:23:16;63.55;;;38.00;;
70199;SDS011;57587;55.688;37.600;2022-08-21T04:25:51;54.65;;;37.72;;
70199;SDS011;57587;55.688;37.600;2022-08-21T04:28:19;61.97;;;38.78;;
70199;SDS011;57587;55.688;37.600;2022-08-21T04:30:49;64.63;;;38.60;;
70199;SDS011;57587;55.688;37.600;2022-08-21T04:33:18;62.67;;;37.83;;
70199;SDS011;57587;55.688;37.600;2022-08-21T04:35:46;66.18;;;38.63;;
70199;SDS011;57587;55.688;37.600;2022-08-21T04:38:14;60.92;;;39.42;;
70199;SDS011;57587;55.688;37.600;2022-08-21T04:40:41;60.55;;;39.67;;
70199;SDS011;57587;55.688;37.600;2022-08-21T04:43:09;64.05;;;40.38;;
70199;SDS011;57587;55.688;37.600;2022-08-21T04:45:39;72.83;;;40.67;;
70199;SDS011;57587;55.688;37.600;2022-08-21T04:48:09;70.10;;;41.63;;
70199;SDS011;57587;55.688;37.600;2022-08-21T04:50:44;68.35;;;42.67;;
70199;SDS011;57587;55.688;37.600;2022-08-21T04:53:28;68.97;;;43.40;;
70199;SDS011;57587;55.688;37.600;2022-08-21T04:56:10;66.03;;;43.08;;
70199;SDS011;57587;55.688;37.600;2022-08-21T04:58:39;71.47;;;44.43;;
70199;SDS011;57587;55.688;37.600;2022-08-21T05:01:09;65.30;;;45.05;;
70199;SDS011;57587;55.688;37.600;2022-08-21T05:03:40;72.47;;;47.10;;
70199;SDS011;57587;55.688;37.600;2022-08-21T05:06:09;71.85;;;46.22;;
70199;SDS011;57587;55.688;37.600;2022-08-21T05:08:39;69.63;;;46.00;;
70199;SDS011;57587;55.688;37.600;2022-08-21T05:11:07;68.03;;;46.27;;
70199;SDS011;57587;55.688;37.600;2022-08-21T05:13:44;70.88;;;48.00;;
70199;SDS011;57587;55.688;37.600;2022-08-21T05:16:11;75.95;;;48.63;;
70199;SDS011;57587;55.688;37.600;2022-08-21T05:18:38;68.78;;;47.30;;
70199;SDS011;57587;55.688;37.600;2022-08-21T05:21:06;68.85;;;48.72;;
70199;SDS011;57587;55.688;37.600;2022-08-21T05:23:33;74.97;;;48.40;;
70199;SDS011;57587;55.688;37.600;2022-08-21T05:26:03;70.28;;;48.15;;
70199;SDS011;57587;55.688;37.600;2022-08-21T05:28:31;74.32;;;47.97;;
70199;SDS011;57587;55.688;37.600;2022-08-21T05:30:58;74.15;;;46.95;;
70199;SDS011;57587;55.688;37.600;2022-08-21T05:33:25;68.93;;;47.80;;
70199;SDS011;57587;55.688;37.600;2022-08-21T05:35:53;67.17;;;47.87;;
70199;SDS011;57587;55.688;37.600;2022-08-21T05:38:24;69.13;;;49.17;;
70199;SDS011;57587;55.688;37.600;2022-08-21T05:40:55;65.45;;;49.10;;
70199;SDS011;57587;55.688;37.600;2022-08-21T05:43:23;69.82;;;48.50;;
70199;SDS011;57587;55.688;37.600;2022-08-21T05:45:50;69.75;;;49.00;;
70199;SDS011;57587;55.688;37.600;2022-08-21T05:48:18;68.37;;;49.07;;
70199;SDS011;57587;55.688;37.600;2022-08-21T05:50:47;69.50;;;47.88;;
70199;SDS011;57587;55.688;37.600;2022-08-21T05:53:16;71.07;;;49.78;;
70199;SDS011;57587;55.688;37.600;2022-08-21T05:55:44;67.25;;;47.80;;
70199;SDS011;57587;55.688;37.600;2022-08-21T05:58:13;73.57;;;48.33;;
70199;SDS011;57587;55.688;37.600;2022-08-21T06:00:42;66.97;;;48.53;;
70199;SDS011;57587;55.688;37.600;2022-08-21T06:03:15;63.90;;;46.22;;
70199;SDS011;57587;55.688;37.600;2022-08-21T06:06:02;66.15;;;47.55;;
70199;SDS011;57587;55.688;37.600;2022-08-21T06:08:30;61.47;;;47.58;;
70199;SDS011;57587;55.688;37.600;2022-08-21T06:10:58;67.38;;;46.88;;
70199;SDS011;57587;55.688;37.600;2022-08-21T06:13:27;64.43;;;46.40;;
70199;SDS011;57587;55.688;37.600;2022-08-21T06:18:52;69.85;;;47.75;;
70199;SDS011;57587;55.688;37.600;2022-08-21T06:21:19;68.88;;;44.75;;
70199;SDS011;57587;55.688;37.600;2022-08-21T06:23:47;62.75;;;45.92;;
70199;SDS011;57587;55.688;37.600;2022-08-21T06:26:14;68.30;;;45.53;;
70199;SDS011;57587;55.688;37.600;2022-08-21T06:28:42;62.33;;;44.47;;
70199;SDS011;57587;55.688;37.600;2022-08-21T06:31:15;59.97;;;43.72;;
70199;SDS011;57587;55.688;37.600;2022-08-21T06:33:44;61.97;;;45.55;;
70199;SDS011;57587;55.688;37.600;2022-08-21T06:36:12;62.20;;;44.45;;
70199;SDS011;57587;55.688;37.600;2022-08-21T06:38:39;73.57;;;44.63;;
70199;SDS011;57587;55.688;37.600;2022-08-21T06:41:16;62.50;;;42.92;;
70199;SDS011;57587;55.688;37.600;2022-08-21T06:43:49;61.13;;;43.53;;
70199;SDS011;57587;55.688;37.600;2022-08-21T06:46:17;61.95;;;42.08;;
70199;SDS011;57587;55.688;37.600;2022-08-21T06:48:44;61.22;;;41.20;;
70199;SDS011;57587;55.688;37.600;2022-08-21T06:51:11;65.67;;;42.23;;
70199;SDS011;57587;55.688;37.600;2022-08-21T06:53:38;56.47;;;41.38;;
70199;SDS011;57587;55.688;37.600;2022-08-21T06:56:05;55.70;;;41.53;;
70199;SDS011;57587;55.688;37.600;2022-08-21T06:58:34;57.38;;;42.05;;
70199;SDS011;57587;55.688;37.600;2022-08-21T07:01:03;57.95;;;39.90;;
70199;SDS011;57587;55.688;37.600;2022-08-21T07:03:35;60.40;;;41.43;;
70199;SDS011;57587;55.688;37.600;2022-08-21T07:06:05;57.75;;;41.40;;
70199;SDS011;57587;55.688;37.600;2022-08-21T07:08:34;56.85;;;40.53;;
70199;SDS011;57587;55.688;37.600;2022-08-21T07:11:02;55.35;;;38.63;;
70199;SDS011;57587;55.688;37.600;2022-08-21T07:13:35;57.60;;;39.72;;
70199;SDS011;57587;55.688;37.600;2022-08-21T07:16:02;57.87;;;40.23;;
70199;SDS011;57587;55.688;37.600;2022-08-21T07:18:30;57.10;;;39.60;;
70199;SDS011;57587;55.688;37.600;2022-08-21T07:20:57;59.22;;;39.85;;
70199;SDS011;57587;55.688;37.600;2022-08-21T07:23:31;58.17;;;38.35;;
70199;SDS011;57587;55.688;37.600;2022-08-21T07:26:01;59.00;;;40.25;;
70199;SDS011;57587;55.688;37.600;2022-08-21T07:28:29;47.10;;;33.60;;
70199;SDS011;57587;55.688;37.600;2022-08-21T07:30:57;48.10;;;33.80;;
70199;SDS011;57587;55.688;37.600;2022-08-21T07:33:26;47.92;;;35.47;;
70199;SDS011;57587;55.688;37.600;2022-08-21T07:35:55;54.35;;;36.00;;
70199;SDS011;57587;55.688;37.600;2022-08-21T07:38:23;45.15;;;33.25;;
70199;SDS011;57587;55.688;37.600;2022-08-21T07:40:51;52.57;;;33.73;;
70199;SDS011;57587;55.688;37.600;2022-08-21T07:43:20;48.92;;;35.20;;
70199;SDS011;57587;55.688;37.600;2022-08-21T07:45:48;48.08;;;34.08;;
70199;SDS011;57587;55.688;37.600;2022-08-21T07:48:22;58.33;;;36.45;;
70199;SDS011;57587;55.688;37.600;2022-08-21T07:50:50;52.40;;;35.45;;
70199;SDS011;57587;55.688;37.600;2022-08-21T07:53:17;47.77;;;32.63;;
70199;SDS011;57587;55.688;37.600;2022-08-21T07:55:44;45.80;;;30.27;;
70199;SDS011;57587;55.688;37.600;2022-08-21T07:58:11;46.90;;;29.77;;
70199;SDS011;57587;55.688;37.600;2022-08-21T08:00:39;45.10;;;28.42;;
70199;SDS011;57587;55.688;37.600;2022-08-21T08:03:07;41.60;;;29.50;;
70199;SDS011;57587;55.688;37.600;2022-08-21T08:05:36;43.43;;;30.33;;
70199;SDS011;57587;55.688;37.600;2022-08-21T08:08:04;44.42;;;30.25;;
70199;SDS011;57587;55.688;37.600;2022-08-21T08:10:31;49.47;;;32.45;;
70199;SDS011;57587;55.688;37.600;2022-08-21T08:12:58;47.78;;;32.72;;
70199;SDS011;57587;55.688;37.600;2022-08-21T08:15:26;53.45;;;33.55;;
70199;SDS011;57587;55.688;37.600;2022-08-21T08:17:54;50.70;;;33.10;;
70199;SDS011;57587;55.688;37.600;2022-08-21T08:20:24;48.50;;;33.35;;
70199;SDS011;57587;55.688;37.600;2022-08-21T08:22:53;47.58;;;33.72;;
70199;SDS011;57587;55.688;37.600;2022-08-21T08:25:21;54.42;;;34.20;;
70199;SDS011;57587;55.688;37.600;2022-08-21T08:27:49;52.72;;;32.08;;
70199;SDS011;57587;55.688;37.600;2022-08-21T08:30:17;47.00;;;30.43;;
70199;SDS011;57587;55.688;37.600;2022-08-21T08:32:46;41.35;;;27.83;;
70199;SDS011;57587;55.688;37.600;2022-08-21T08:35:13;43.00;;;27.73;;
70199;SDS011;57587;55.688;37.600;2022-08-21T08:37:41;43.70;;;27.48;;
70199;SDS011;57587;55.688;37.600;2022-08-21T08:40:12;42.65;;;26.35;;
70199;SDS011;57587;55.688;37.600;2022-08-21T08:42:48;38.33;;;24.33;;
70199;SDS011;57587;55.688;37.600;2022-08-21T08:45:18;37.00;;;24.20;;
70199;SDS011;57587;55.688;37.600;2022-08-21T08:47:53;35.47;;;24.17;;
70199;SDS011;57587;55.688;37.600;2022-08-21T08:52:59;33.20;;;24.85;;
70199;SDS011;57587;55.688;37.600;2022-08-21T08:55:35;37.60;;;23.43;;
70199;SDS011;57587;55.688;37.600;2022-08-21T08:58:19;34.17;;;23.10;;
70199;SDS011;57587;55.688;37.600;2022-08-21T09:00:53;36.97;;;24.63;;
70199;SDS011;57587;55.688;37.600;2022-08-21T09:03:25;35.33;;;24.05;;
70199;SDS011;57587;55.688;37.600;2022-08-21T09:20:32;32.42;;;22.92;;
70199;SDS011;57587;55.688;37.600;2022-08-21T09:25:56;34.45;;;20.42;;
70199;SDS011;57587;55.688;37.600;2022-08-21T09:28:34;36.58;;;19.88;;
70199;SDS011;57587;55.688;37.600;2022-08-21T09:31:03;27.77;;;17.45;;
70199;SDS011;57587;55.688;37.600;2022-08-21T09:33:33;33.25;;;18.17;;
70199;SDS011;57587;55.688;37.600;2022-08-21T09:36:01;28.43;;;15.50;;
70199;SDS011;57587;55.688;37.600;2022-08-21T09:38:34;27.05;;;15.90;;
70199;SDS011;57587;55.688;37.600;2022-08-21T09:41:04;36.63;;;15.23;;
70199;SDS011;57587;55.688;37.600;2022-08-21T09:43:35;28.88;;;17.20;;
70199;SDS011;57587;55.688;37.600;2022-08-21T09:46:37;28.77;;;18.20;;
70199;SDS011;57587;55.688;37.600;2022-08-21T09:48:58;29.60;;;18.77;;
70199;SDS011;57587;55.688;37.600;2022-08-21T09:51:32;30.80;;;16.52;;
70199;SDS011;57587;55.688;37.600;2022-08-21T09:56:50;23.73;;;13.57;;
70199;SDS011;57587;55.688;37.600;2022-08-21T09:59:36;20.73;;;11.02;;
70199;SDS011;57587;55.688;37.600;2022-08-21T10:02:20;25.83;;;12.23;;
70199;SDS011;57587;55.688;37.600;2022-08-21T10:04:52;21.60;;;12.05;;
70199;SDS011;57587;55.688;37.600;2022-08-21T10:07:22;22.58;;;11.68;;
70199;SDS011;57587;55.688;37.600;2022-08-21T10:10:03;24.58;;;13.77;;
70199;SDS011;57587;55.688;37.600;2022-08-21T10:15:23;22.10;;;12.83;;
70199;SDS011;57587;55.688;37.600;2022-08-21T10:18:12;25.48;;;13.75;;
70199;SDS011;57587;55.688;37.600;2022-08-21T10:21:01;16.58;;;10.15;;
70199;SDS011;57587;55.688;37.600;2022-08-21T10:26:39;17.23;;;8.15;;
70199;SDS011;57587;55.688;37.600;2022-08-21T10:32:07;18.15;;;8.00;;
70199;SDS011;57587;55.688;37.600;2022-08-21T10:35:13;15.52;;;7.07;;
70199;SDS011;57587;55.688;37.600;2022-08-21T10:41:03;15.23;;;6.35;;
70199;SDS011;57587;55.688;37.600;2022-08-21T10:46:17;17.98;;;6.95;;
70199;SDS011;57587;55.688;37.600;2022-08-21T10:48:47;14.43;;;6.05;;
70199;SDS011;57587;55.688;37.600;2022-08-21T10:51:18;14.60;;;6.75;;
70199;SDS011;57587;55.688;37.600;2022-08-21T10:56:29;12.53;;;5.70;;
70199;SDS011;57587;55.688;37.600;2022-08-21T10:59:07;13.80;;;5.63;;
70199;SDS011;57587;55.688;37.600;2022-08-21T11:12:59;12.25;;;4.10;;
70199;SDS011;57587;55.688;37.600;2022-08-21T11:23:47;18.30;;;4.90;;
70199;SDS011;57587;55.688;37.600;2022-08-21T11:26:38;10.60;;;5.25;;
70199;SDS011;57587;55.688;37.600;2022-08-21T11:29:16;19.33;;;6.32;;
70199;SDS011;57587;55.688;37.600;2022-08-21T11:34:57;24.75;;;8.93;;
70199;SDS011;57587;55.688;37.600;2022-08-21T11:40:40;20.00;;;9.27;;
70199;SDS011;57587;55.688;37.600;2022-08-21T11:43:34;22.42;;;11.48;;
70199;SDS011;57587;55.688;37.600;2022-08-21T11:46:14;29.30;;;14.50;;
70199;SDS011;57587;55.688;37.600;2022-08-21T11:51:47;32.83;;;16.27;;
70199;SDS011;57587;55.688;37.600;2022-08-21T11:57:20;31.75;;;17.10;;
70199;SDS011;57587;55.688;37.600;2022-08-21T12:00:35;29.95;;;16.42;;
70199;SDS011;57587;55.688;37.600;2022-08-21T12:03:08;31.65;;;15.95;;
70199;SDS011;57587;55.688;37.600;2022-08-21T12:05:45;27.23;;;14.37;;
70199;SDS011;57587;55.688;37.600;2022-08-21T12:08:28;28.55;;;15.48;;
70199;SDS011;57587;55.688;37.600;2022-08-21T12:11:05;31.63;;;14.57;;
70199;SDS011;57587;55.688;37.600;2022-08-21T12:16:45;26.15;;;13.20;;
70199;SDS011;57587;55.688;37.600;2022-08-21T12:19:27;27.30;;;12.53;;
70199;SDS011;57587;55.688;37.600;2022-08-21T12:26:55;25.45;;;12.73;;
70199;SDS011;57587;55.688;37.600;2022-08-21T12:29:30;27.25;;;13.82;;
70199;SDS011;57587;55.688;37.600;2022-08-21T12:34:48;24.58;;;12.95;;
70199;SDS011;57587;55.688;37.600;2022-08-21T12:37:31;24.58;;;11.90;;
70199;SDS011;57587;55.688;37.600;2022-08-21T12:40:00;23.05;;;12.85;;
70199;SDS011;57587;55.688;37.600;2022-08-21T12:42:41;24.33;;;12.02;;
70199;SDS011;57587;55.688;37.600;2022-08-21T12:48:41;22.15;;;11.77;;
70199;SDS011;57587;55.688;37.600;2022-08-21T12:51:14;25.25;;;12.13;;
70199;SDS011;57587;55.688;37.600;2022-08-21T12:56:12;23.70;;;11.68;;
70199;SDS011;57587;55.688;37.600;2022-08-21T12:58:46;22.83;;;12.97;;
70199;SDS011;57587;55.688;37.600;2022-08-21T13:01:25;19.30;;;11.23;;
70199;SDS011;57587;55.688;37.600;2022-08-21T13:04:08;24.10;;;11.45;;
70199;SDS011;57587;55.688;37.600;2022-08-21T13:06:43;26.85;;;11.40;;
70199;SDS011;57587;55.688;37.600;2022-08-21T13:09:13;25.40;;;10.93;;
70199;SDS011;57587;55.688;37.600;2022-08-21T13:11:43;25.13;;;11.37;;
70199;SDS011;57587;55.688;37.600;2022-08-21T13:17:10;22.25;;;9.70;;
70199;SDS011;57587;55.688;37.600;2022-08-21T13:22:50;19.75;;;8.07;;
70199;SDS011;57587;55.688;37.600;2022-08-21T13:25:19;19.53;;;7.93;;
70199;SDS011;57587;55.688;37.600;2022-08-21T13:28:09;23.20;;;8.85;;
70199;SDS011;57587;55.688;37.600;2022-08-21T13:30:50;22.08;;;8.18;;
70199;SDS011;57587;55.688;37.600;2022-08-21T13:33:21;19.55;;;7.28;;
70199;SDS011;57587;55.688;37.600;2022-08-21T13:38:31;27.27;;;7.10;;
70199;SDS011;57587;55.688;37.600;2022-08-21T13:41:02;21.60;;;6.38;;
70199;SDS011;57587;55.688;37.600;2022-08-21T13:43:33;17.40;;;6.00;;
70199;SDS011;57587;55.688;37.600;2022-08-21T13:46:06;14.65;;;5.25;;
70199;SDS011;57587;55.688;37.600;2022-08-21T13:48:36;18.50;;;6.18;;
70199;SDS011;57587;55.688;37.600;2022-08-21T13:51:05;15.63;;;5.53;;
70199;SDS011;57587;55.688;37.600;2022-08-21T13:53:34;14.80;;;5.60;;
70199;SDS011;57587;55.688;37.600;2022-08-21T13:56:23;12.23;;;5.50;;
70199;SDS011;57587;55.688;37.600;2022-08-21T13:58:58;26.90;;;5.72;;
70199;SDS011;57587;55.688;37.600;2022-08-21T14:07:46;16.80;;;5.85;;
70199;SDS011;57587;55.688;37.600;2022-08-21T14:10:18;15.23;;;6.93;;
70199;SDS011;57587;55.688;37.600;2022-08-21T14:12:50;21.42;;;7.65;;
70199;SDS011;57587;55.688;37.600;2022-08-21T14:15:26;15.18;;;7.93;;
70199;SDS011;57587;55.688;37.600;2022-08-21T14:18:05;16.53;;;7.53;;
70199;SDS011;57587;55.688;37.600;2022-08-21T14:20:43;17.50;;;6.60;;
70199;SDS011;57587;55.688;37.600;2022-08-21T14:23:11;15.45;;;6.72;;
70199;SDS011;57587;55.688;37.600;2022-08-21T14:25:42;18.83;;;6.88;;
70199;SDS011;57587;55.688;37.600;2022-08-21T14:28:24;18.25;;;7.03;;
70199;SDS011;57587;55.688;37.600;2022-08-21T14:30:54;20.20;;;6.30;;
70199;SDS011;57587;55.688;37.600;2022-08-21T14:33:27;15.98;;;5.43;;
70199;SDS011;57587;55.688;37.600;2022-08-21T14:35:58;16.17;;;4.90;;
70199;SDS011;57587;55.688;37.600;2022-08-21T14:38:27;12.98;;;4.68;;
70199;SDS011;57587;55.688;37.600;2022-08-21T14:41:08;10.88;;;3.70;;
70199;SDS011;57587;55.688;37.600;2022-08-21T14:43:43;15.33;;;4.10;;
70199;SDS011;57587;55.688;37.600;2022-08-21T14:46:12;11.65;;;3.35;;
70199;SDS011;57587;55.688;37.600;2022-08-21T14:49:11;11.23;;;3.58;;
70199;SDS011;57587;55.688;37.600;2022-08-21T14:51:40;14.70;;;3.30;;
70199;SDS011;57587;55.688;37.600;2022-08-21T14:54:19;9.80;;;3.08;;
70199;SDS011;57587;55.688;37.600;2022-08-21T14:56:53;15.97;;;3.43;;
70199;SDS011;57587;55.688;37.600;2022-08-21T14:59:21;8.90;;;2.97;;
70199;SDS011;57587;55.688;37.600;2022-08-21T15:01:49;10.52;;;3.70;;
70199;SDS011;57587;55.688;37.600;2022-08-21T15:04:17;9.93;;;3.22;;
70199;SDS011;57587;55.688;37.600;2022-08-21T15:06:45;6.68;;;3.00;;
70199;SDS011;57587;55.688;37.600;2022-08-21T15:09:13;9.13;;;3.07;;
70199;SDS011;57587;55.688;37.600;2022-08-21T15:11:41;14.20;;;3.33;;
70199;SDS011;57587;55.688;37.600;2022-08-21T15:14:10;14.70;;;3.28;;
70199;SDS011;57587;55.688;37.600;2022-08-21T15:16:44;13.32;;;3.20;;
70199;SDS011;57587;55.688;37.600;2022-08-21T15:19:12;8.40;;;2.75;;
70199;SDS011;57587;55.688;37.600;2022-08-21T15:21:39;10.67;;;3.00;;
70199;SDS011;57587;55.688;37.600;2022-08-21T15:24:06;7.28;;;2.60;;
70199;SDS011;57587;55.688;37.600;2022-08-21T15:26:34;17.48;;;2.95;;
70199;SDS011;57587;55.688;37.600;2022-08-21T15:29:02;8.30;;;2.88;;
70199;SDS011;57587;55.688;37.600;2022-08-21T15:31:32;6.47;;;2.40;;
70199;SDS011;57587;55.688;37.600;2022-08-21T15:34:00;7.77;;;2.97;;
70199;SDS011;57587;55.688;37.600;2022-08-21T15:36:27;14.25;;;3.08;;
70199;SDS011;57587;55.688;37.600;2022-08-21T15:38:54;9.18;;;2.85;;
70199;SDS011;57587;55.688;37.600;2022-08-21T15:41:21;10.02;;;3.00;;
70199;SDS011;57587;55.688;37.600;2022-08-21T15:43:49;12.82;;;3.03;;
70199;SDS011;57587;55.688;37.600;2022-08-21T15:46:19;8.97;;;2.50;;
70199;SDS011;57587;55.688;37.600;2022-08-21T15:48:47;14.43;;;3.28;;
70199;SDS011;57587;55.688;37.600;2022-08-21T15:51:15;13.80;;;3.08;;
70199;SDS011;57587;55.688;37.600;2022-08-21T15:53:43;8.10;;;2.90;;
70199;SDS011;57587;55.688;37.600;2022-08-21T15:56:14;7.85;;;2.58;;
70199;SDS011;57587;55.688;37.600;2022-08-21T15:58:52;11.57;;;3.83;;
70199;SDS011;57587;55.688;37.600;2022-08-21T16:01:26;12.77;;;3.22;;
70199;SDS011;57587;55.688;37.600;2022-08-21T16:04:10;17.17;;;3.38;;
70199;SDS011;57587;55.688;37.600;2022-08-21T16:06:41;10.55;;;3.47;;
70199;SDS011;57587;55.688;37.600;2022-08-21T16:09:22;12.38;;;3.72;;
70199;SDS011;57587;55.688;37.600;2022-08-21T16:11:49;11.97;;;3.53;;
70199;SDS011;57587;55.688;37.600;2022-08-21T16:14:17;13.05;;;3.22;;
70199;SDS011;57587;55.688;37.600;2022-08-21T16:16:46;20.20;;;4.18;;
70199;SDS011;57587;55.688;37.600;2022-08-21T16:19:13;22.25;;;3.58;;
70199;SDS011;57587;55.688;37.600;2022-08-21T16:21:40;13.00;;;3.13;;
70199;SDS011;57587;55.688;37.600;2022-08-21T16:24:07;13.53;;;3.57;;
70199;SDS011;57587;55.688;37.600;2022-08-21T16:26:35;17.00;;;3.90;;